createdAt,value
2018-05-29T00:00:13.950Z,990.36
2018-05-29T00:01:14.179Z,990.30
2018-05-29T00:02:14.413Z,990.31
2018-05-29T00:03:14.650Z,990.30
2018-05-29T00:04:14.874Z,990.31
2018-05-29T00:05:15.111Z,990.27
2018-05-29T00:06:15.336Z,990.31
2018-05-29T00:07:15.573Z,990.28
2018-05-29T00:08:15.817Z,990.28
2018-05-29T00:09:16.038Z,990.29
2018-05-29T00:10:16.326Z,990.30
2018-05-29T00:11:16.500Z,990.30
2018-05-29T00:12:16.731Z,990.29
2018-05-29T00:13:16.972Z,990.33
2018-05-29T00:14:17.203Z,990.33
2018-05-29T00:15:17.425Z,990.28
2018-05-29T00:16:17.654Z,990.29
2018-05-29T00:17:17.886Z,990.29
2018-05-29T00:18:18.114Z,990.31
2018-05-29T00:19:18.355Z,990.25
2018-05-29T00:20:18.579Z,990.21
2018-05-29T00:21:18.810Z,990.22
2018-05-29T00:22:19.048Z,990.18
2018-05-29T00:23:19.280Z,990.18
2018-05-29T00:24:19.510Z,990.15
2018-05-29T00:25:19.741Z,990.15
2018-05-29T00:26:19.971Z,990.16
2018-05-29T00:27:20.207Z,990.14
2018-05-29T00:28:20.447Z,990.08
2018-05-29T00:29:20.671Z,990.12
2018-05-29T00:30:20.904Z,990.10
2018-05-29T00:31:21.130Z,990.10
2018-05-29T00:32:21.365Z,990.11
2018-05-29T00:33:21.594Z,990.10
2018-05-29T00:34:21.832Z,990.07
2018-05-29T00:35:22.070Z,990.09
2018-05-29T00:36:22.297Z,990.05
2018-05-29T00:37:22.531Z,990.05
2018-05-29T00:38:22.769Z,990.07
2018-05-29T00:39:22.989Z,990.10
2018-05-29T00:40:23.227Z,990.10
2018-05-29T00:41:23.468Z,990.07
2018-05-29T00:42:23.699Z,990.06
2018-05-29T00:43:23.928Z,990.05
2018-05-29T00:44:24.164Z,990.03
2018-05-29T00:45:24.396Z,990.02
2018-05-29T00:46:24.629Z,990.01
2018-05-29T00:47:24.864Z,989.98
2018-05-29T00:48:25.094Z,990.01
2018-05-29T00:49:25.315Z,989.97
2018-05-29T00:50:25.545Z,989.92
2018-05-29T00:51:25.776Z,989.89
2018-05-29T00:52:26.009Z,989.93
2018-05-29T00:53:26.248Z,989.85
2018-05-29T00:54:26.475Z,989.86
2018-05-29T00:55:26.707Z,989.81
2018-05-29T00:56:26.941Z,989.78
2018-05-29T00:57:27.172Z,989.81
2018-05-29T00:58:27.406Z,989.83
2018-05-29T00:59:27.644Z,989.81
2018-05-29T01:00:27.873Z,989.77
2018-05-29T01:01:28.102Z,989.78
2018-05-29T01:02:28.333Z,989.77
2018-05-29T01:03:28.566Z,989.73
2018-05-29T01:04:28.803Z,989.71
2018-05-29T01:05:29.031Z,989.68
2018-05-29T01:06:29.265Z,989.73
2018-05-29T01:07:29.497Z,989.71
2018-05-29T01:08:29.729Z,989.70
2018-05-29T01:09:29.961Z,989.67
2018-05-29T01:10:30.199Z,989.66
2018-05-29T01:11:30.431Z,989.65
2018-05-29T01:12:30.673Z,989.63
2018-05-29T01:13:30.891Z,989.62
2018-05-29T01:14:31.125Z,989.63
2018-05-29T01:15:31.358Z,989.62
2018-05-29T01:16:31.588Z,989.63
2018-05-29T01:17:31.823Z,989.64
2018-05-29T01:18:32.049Z,989.65
2018-05-29T01:19:32.283Z,989.66
2018-05-29T01:20:32.516Z,989.67
2018-05-29T01:21:32.749Z,989.68
2018-05-29T01:22:32.991Z,989.67
2018-05-29T01:23:33.200Z,989.67
2018-05-29T01:24:33.449Z,989.65
2018-05-29T01:25:33.682Z,989.61
2018-05-29T01:26:33.914Z,989.59
2018-05-29T01:27:34.144Z,989.57
2018-05-29T01:28:34.374Z,989.60
2018-05-29T01:29:34.601Z,989.58
2018-05-29T01:30:34.829Z,989.61
2018-05-29T01:31:35.071Z,989.59
2018-05-29T01:32:35.309Z,989.60
2018-05-29T01:33:35.527Z,989.64
2018-05-29T01:34:35.768Z,989.69
2018-05-29T01:35:36.032Z,989.68
2018-05-29T01:36:36.245Z,989.67
2018-05-29T01:37:36.457Z,989.64
2018-05-29T01:38:36.682Z,989.63
2018-05-29T01:39:36.924Z,989.64
2018-05-29T01:40:37.151Z,989.60
2018-05-29T01:41:37.385Z,989.58
2018-05-29T01:42:37.616Z,989.57
2018-05-29T01:43:37.855Z,989.58
2018-05-29T01:44:38.086Z,989.59
2018-05-29T01:45:38.316Z,989.58
2018-05-29T01:46:38.554Z,989.60
2018-05-29T01:47:38.777Z,989.58
2018-05-29T01:48:39.015Z,989.62
2018-05-29T01:49:39.244Z,989.60
2018-05-29T01:50:39.469Z,989.59
2018-05-29T01:51:39.707Z,989.59
2018-05-29T01:52:39.939Z,989.55
2018-05-29T01:53:40.169Z,989.53
2018-05-29T01:54:40.400Z,989.51
2018-05-29T01:55:40.639Z,989.51
2018-05-29T01:56:40.865Z,989.53
2018-05-29T01:57:41.096Z,989.54
2018-05-29T01:58:41.333Z,989.57
2018-05-29T01:59:41.577Z,989.57
2018-05-29T02:00:41.799Z,989.56
2018-05-29T02:01:42.025Z,989.53
2018-05-29T02:02:42.258Z,989.54
2018-05-29T02:03:42.488Z,989.52
2018-05-29T02:04:42.721Z,989.53
2018-05-29T02:05:42.952Z,989.52
2018-05-29T02:06:43.184Z,989.52
2018-05-29T02:07:43.415Z,989.49
2018-05-29T02:08:43.652Z,989.44
2018-05-29T02:09:43.882Z,989.44
2018-05-29T02:10:44.112Z,989.46
2018-05-29T02:11:44.347Z,989.44
2018-05-29T02:12:44.575Z,989.46
2018-05-29T02:13:44.804Z,989.44
2018-05-29T02:14:45.040Z,989.47
2018-05-29T02:15:45.268Z,989.47
2018-05-29T02:16:45.522Z,989.48
2018-05-29T02:17:45.731Z,989.44
2018-05-29T02:18:45.969Z,989.44
2018-05-29T02:19:46.192Z,989.49
2018-05-29T02:20:46.423Z,989.48
2018-05-29T02:21:46.656Z,989.44
2018-05-29T02:22:46.887Z,989.44
2018-05-29T02:23:47.117Z,989.43
2018-05-29T02:24:47.347Z,989.45
2018-05-29T02:25:47.580Z,989.41
2018-05-29T02:26:47.809Z,989.41
2018-05-29T02:27:48.040Z,989.45
2018-05-29T02:28:48.272Z,989.45
2018-05-29T02:29:48.507Z,989.49
2018-05-29T02:30:48.736Z,989.47
2018-05-29T02:31:48.956Z,989.51
2018-05-29T02:32:49.186Z,989.52
2018-05-29T02:33:49.414Z,989.51
2018-05-29T02:34:49.645Z,989.50
2018-05-29T02:35:49.877Z,989.53
2018-05-29T02:36:50.110Z,989.51
2018-05-29T02:37:50.345Z,989.50
2018-05-29T02:38:50.578Z,989.49
2018-05-29T02:39:50.807Z,989.48
2018-05-29T02:40:51.035Z,989.45
2018-05-29T02:41:51.267Z,989.47
2018-05-29T02:42:51.500Z,989.47
2018-05-29T02:43:51.729Z,989.46
2018-05-29T02:44:51.959Z,989.50
2018-05-29T02:45:52.194Z,989.54
2018-05-29T02:46:52.416Z,989.54
2018-05-29T02:47:52.647Z,989.56
2018-05-29T02:48:52.879Z,989.62
2018-05-29T02:49:53.107Z,989.62
2018-05-29T02:50:53.341Z,989.61
2018-05-29T02:51:53.573Z,989.61
2018-05-29T02:52:53.813Z,989.59
2018-05-29T02:53:54.044Z,989.59
2018-05-29T02:54:54.269Z,989.59
2018-05-29T02:55:54.503Z,989.60
2018-05-29T02:56:54.731Z,989.64
2018-05-29T02:57:54.963Z,989.64
2018-05-29T02:58:55.199Z,989.65
2018-05-29T02:59:55.425Z,989.68
2018-05-29T03:00:55.657Z,989.69
2018-05-29T03:01:55.888Z,989.69
2018-05-29T03:02:56.119Z,989.70
2018-05-29T03:03:56.354Z,989.70
2018-05-29T03:04:56.579Z,989.69
2018-05-29T03:05:56.820Z,989.66
2018-05-29T03:06:57.058Z,989.64
2018-05-29T03:07:57.290Z,989.64
2018-05-29T03:08:57.520Z,989.62
2018-05-29T03:09:57.749Z,989.63
2018-05-29T03:10:57.981Z,989.61
2018-05-29T03:11:58.222Z,989.60
2018-05-29T03:12:58.444Z,989.58
2018-05-29T03:13:58.677Z,989.61
2018-05-29T03:14:58.909Z,989.57
2018-05-29T03:15:59.140Z,989.59
2018-05-29T03:16:59.391Z,989.63
2018-05-29T03:17:59.608Z,989.58
2018-05-29T03:18:59.838Z,989.61
2018-05-29T03:20:00.074Z,989.62
2018-05-29T03:21:00.375Z,989.63
2018-05-29T03:22:00.534Z,989.63
2018-05-29T03:23:00.761Z,989.62
2018-05-29T03:24:00.996Z,989.59
2018-05-29T03:25:01.227Z,989.56
2018-05-29T03:26:01.454Z,989.52
2018-05-29T03:27:01.683Z,989.48
2018-05-29T03:28:01.917Z,989.49
2018-05-29T03:29:02.147Z,989.44
2018-05-29T03:30:02.376Z,989.49
2018-05-29T03:31:02.606Z,989.45
2018-05-29T03:32:02.836Z,989.45
2018-05-29T03:33:03.067Z,989.45
2018-05-29T03:34:03.298Z,989.46
2018-05-29T03:35:03.532Z,989.44
2018-05-29T03:36:03.764Z,989.46
2018-05-29T03:37:03.988Z,989.46
2018-05-29T03:38:04.220Z,989.43
2018-05-29T03:39:04.453Z,989.47
2018-05-29T03:40:04.683Z,989.44
2018-05-29T03:41:04.922Z,989.42
2018-05-29T03:42:05.142Z,989.48
2018-05-29T03:43:05.379Z,989.45
2018-05-29T03:44:05.604Z,989.49
2018-05-29T03:45:05.835Z,989.47
2018-05-29T03:46:06.067Z,989.48
2018-05-29T03:47:06.302Z,989.47
2018-05-29T03:48:06.530Z,989.48
2018-05-29T03:49:06.765Z,989.49
2018-05-29T03:50:06.997Z,989.43
2018-05-29T03:51:07.229Z,989.47
2018-05-29T03:52:07.460Z,989.49
2018-05-29T03:53:07.691Z,989.50
2018-05-29T03:54:07.923Z,989.49
2018-05-29T03:55:08.153Z,989.46
2018-05-29T03:56:08.379Z,989.44
2018-05-29T03:57:08.624Z,989.48
2018-05-29T03:58:08.845Z,989.45
2018-05-29T03:59:09.071Z,989.49
2018-05-29T04:00:09.300Z,989.48
2018-05-29T04:01:09.537Z,989.46
2018-05-29T04:02:09.762Z,989.47
2018-05-29T04:03:09.989Z,989.49
2018-05-29T04:04:10.214Z,989.57
2018-05-29T04:05:10.441Z,989.59
2018-05-29T04:06:10.673Z,989.59
2018-05-29T04:07:10.912Z,989.63
2018-05-29T04:08:11.143Z,989.70
2018-05-29T04:09:11.370Z,989.70
2018-05-29T04:10:11.600Z,989.67
2018-05-29T04:11:11.837Z,989.70
2018-05-29T04:12:12.071Z,989.70
2018-05-29T04:13:12.305Z,989.62
2018-05-29T04:14:12.537Z,989.60
2018-05-29T04:15:12.771Z,989.55
2018-05-29T04:16:13.019Z,989.59
2018-05-29T04:17:13.239Z,989.56
2018-05-29T04:18:13.478Z,989.58
2018-05-29T04:19:13.714Z,989.52
2018-05-29T04:20:13.947Z,989.57
2018-05-29T04:21:14.180Z,989.59
2018-05-29T04:22:14.418Z,989.60
2018-05-29T04:23:14.651Z,989.55
2018-05-29T04:24:14.887Z,989.56
2018-05-29T04:25:15.124Z,989.59
2018-05-29T04:26:15.359Z,989.60
2018-05-29T04:27:15.599Z,989.59
2018-05-29T04:28:15.830Z,989.66
2018-05-29T04:29:16.066Z,989.63
2018-05-29T04:30:16.301Z,989.63
2018-05-29T04:31:16.543Z,989.60
2018-05-29T04:32:16.774Z,989.57
2018-05-29T04:33:17.009Z,989.56
2018-05-29T04:34:17.250Z,989.53
2018-05-29T04:35:17.480Z,989.57
2018-05-29T04:36:17.721Z,989.54
2018-05-29T04:37:17.953Z,989.61
2018-05-29T04:38:18.189Z,989.65
2018-05-29T04:39:18.425Z,989.63
2018-05-29T04:40:18.664Z,989.64
2018-05-29T04:41:18.902Z,989.65
2018-05-29T04:42:19.139Z,989.59
2018-05-29T04:43:19.379Z,989.56
2018-05-29T04:44:19.604Z,989.56
2018-05-29T04:45:19.844Z,989.59
2018-05-29T04:46:20.082Z,989.58
2018-05-29T04:47:20.316Z,989.58
2018-05-29T04:48:20.558Z,989.59
2018-05-29T04:49:20.793Z,989.56
2018-05-29T04:50:21.059Z,989.51
2018-05-29T04:51:21.273Z,989.54
2018-05-29T04:52:21.514Z,989.52
2018-05-29T04:53:21.750Z,989.54
2018-05-29T04:54:21.989Z,989.54
2018-05-29T04:55:22.226Z,989.58
2018-05-29T04:56:22.470Z,989.57
2018-05-29T04:57:22.701Z,989.51
2018-05-29T04:58:22.940Z,989.47
2018-05-29T04:59:23.179Z,989.45
2018-05-29T05:00:23.412Z,989.48
2018-05-29T05:01:23.651Z,989.50
2018-05-29T05:02:23.893Z,989.51
2018-05-29T05:03:24.131Z,989.58
2018-05-29T05:04:24.367Z,989.60
2018-05-29T05:05:24.605Z,989.60
2018-05-29T05:06:24.848Z,989.57
2018-05-29T05:07:25.090Z,989.51
2018-05-29T05:08:25.327Z,989.46
2018-05-29T05:09:25.565Z,989.47
2018-05-29T05:10:25.808Z,989.48
2018-05-29T05:11:26.050Z,989.51
2018-05-29T05:12:26.284Z,989.53
2018-05-29T05:13:26.529Z,989.55
2018-05-29T05:14:26.758Z,989.55
2018-05-29T05:15:26.995Z,989.55
2018-05-29T05:16:27.248Z,989.57
2018-05-29T05:17:27.476Z,989.61
2018-05-29T05:18:27.715Z,989.61
2018-05-29T05:19:27.952Z,989.55
2018-05-29T05:20:28.195Z,989.56
2018-05-29T05:21:28.431Z,989.54
2018-05-29T05:22:28.666Z,989.49
2018-05-29T05:23:28.908Z,989.46
2018-05-29T05:24:29.144Z,989.44
2018-05-29T05:25:29.387Z,989.44
2018-05-29T05:26:29.627Z,989.44
2018-05-29T05:27:29.866Z,989.43
2018-05-29T05:28:30.111Z,989.39
2018-05-29T05:29:30.351Z,989.40
2018-05-29T05:30:30.590Z,989.35
2018-05-29T05:31:30.830Z,989.35
2018-05-29T05:32:31.076Z,989.34
2018-05-29T05:33:31.313Z,989.37
2018-05-29T05:34:31.552Z,989.33
2018-05-29T05:35:31.792Z,989.30
2018-05-29T05:36:32.033Z,989.32
2018-05-29T05:37:32.277Z,989.32
2018-05-29T05:38:32.564Z,989.29
2018-05-29T05:39:32.757Z,989.28
2018-05-29T05:40:32.998Z,989.27
2018-05-29T05:41:33.236Z,989.35
2018-05-29T05:42:33.475Z,989.34
2018-05-29T05:43:33.713Z,989.34
2018-05-29T05:44:33.960Z,989.35
2018-05-29T05:45:34.196Z,989.36
2018-05-29T05:46:34.437Z,989.37
2018-05-29T05:47:34.677Z,989.39
2018-05-29T05:48:34.926Z,989.34
2018-05-29T05:49:35.160Z,989.32
2018-05-29T05:50:35.399Z,989.27
2018-05-29T05:51:35.642Z,989.30
2018-05-29T05:52:35.884Z,989.34
2018-05-29T05:53:36.127Z,989.35
2018-05-29T05:54:36.367Z,989.39
2018-05-29T05:55:36.610Z,989.40
2018-05-29T05:56:36.851Z,989.40
2018-05-29T05:57:37.091Z,989.40
2018-05-29T05:58:37.333Z,989.42
2018-05-29T05:59:37.574Z,989.43
2018-05-29T06:00:37.816Z,989.42
2018-05-29T06:01:38.057Z,989.42
2018-05-29T06:02:38.299Z,989.41
2018-05-29T06:03:38.537Z,989.44
2018-05-29T06:04:38.776Z,989.42
2018-05-29T06:05:39.028Z,989.36
2018-05-29T06:06:39.264Z,989.36
2018-05-29T06:07:39.504Z,989.36
2018-05-29T06:08:39.749Z,989.35
2018-05-29T06:09:39.993Z,989.38
2018-05-29T06:10:40.233Z,989.33
2018-05-29T06:11:40.474Z,989.35
2018-05-29T06:12:40.713Z,989.37
2018-05-29T06:13:40.957Z,989.38
2018-05-29T06:14:41.204Z,989.39
2018-05-29T06:15:41.441Z,989.40
2018-05-29T06:16:41.681Z,989.39
2018-05-29T06:17:41.924Z,989.38
2018-05-29T06:18:42.170Z,989.37
2018-05-29T06:19:42.412Z,989.33
2018-05-29T06:20:42.651Z,989.35
2018-05-29T06:21:42.890Z,989.38
2018-05-29T06:22:43.131Z,989.37
2018-05-29T06:23:43.375Z,989.37
2018-05-29T06:24:43.615Z,989.40
2018-05-29T06:25:43.852Z,989.38
2018-05-29T06:26:44.093Z,989.39
2018-05-29T06:27:44.339Z,989.37
2018-05-29T06:28:44.579Z,989.38
2018-05-29T06:29:46.388Z,989.37
2018-05-29T06:30:45.004Z,989.36
2018-05-29T06:31:45.246Z,989.39
2018-05-29T06:32:45.528Z,989.38
2018-05-29T06:33:45.733Z,989.38
2018-05-29T06:34:45.973Z,989.40
2018-05-29T06:35:46.208Z,989.34
2018-05-29T06:36:46.458Z,989.34
2018-05-29T06:37:46.700Z,989.29
2018-05-29T06:38:46.991Z,989.32
2018-05-29T06:39:47.182Z,989.31
2018-05-29T06:40:47.425Z,989.30
2018-05-29T06:41:47.663Z,989.26
2018-05-29T06:42:47.902Z,989.23
2018-05-29T06:43:48.147Z,989.25
2018-05-29T06:44:48.413Z,989.22
2018-05-29T06:45:48.626Z,989.24
2018-05-29T06:46:48.868Z,989.23
2018-05-29T06:47:49.101Z,989.26
2018-05-29T06:48:49.341Z,989.24
2018-05-29T06:49:49.585Z,989.31
2018-05-29T06:50:49.828Z,989.33
2018-05-29T06:51:50.051Z,989.28
2018-05-29T06:52:50.296Z,989.30
2018-05-29T06:53:50.536Z,989.29
2018-05-29T06:54:50.779Z,989.30
2018-05-29T06:55:51.015Z,989.28
2018-05-29T06:56:51.254Z,989.27
2018-05-29T06:57:51.513Z,989.28
2018-05-29T06:58:51.742Z,989.30
2018-05-29T06:59:51.980Z,989.28
2018-05-29T07:00:52.229Z,989.27
2018-05-29T07:01:52.459Z,989.29
2018-05-29T07:02:52.704Z,989.27
2018-05-29T07:03:52.977Z,989.28
2018-05-29T07:04:53.184Z,989.30
2018-05-29T07:05:53.424Z,989.33
2018-05-29T07:06:53.662Z,989.31
2018-05-29T07:07:53.906Z,989.32
2018-05-29T07:08:54.153Z,989.32
2018-05-29T07:09:54.388Z,989.33
2018-05-29T07:10:54.628Z,989.32
2018-05-29T07:11:54.869Z,989.27
2018-05-29T07:12:55.107Z,989.28
2018-05-29T07:13:55.348Z,989.26
2018-05-29T07:14:55.590Z,989.27
2018-05-29T07:15:55.828Z,989.26
2018-05-29T07:16:56.066Z,989.24
2018-05-29T07:17:56.314Z,989.21
2018-05-29T07:18:56.546Z,989.15
2018-05-29T07:19:56.821Z,989.15
2018-05-29T07:20:57.026Z,989.16
2018-05-29T07:21:57.265Z,989.13
2018-05-29T07:22:57.506Z,989.13
2018-05-29T07:23:57.746Z,989.14
2018-05-29T07:24:57.986Z,989.13
2018-05-29T07:25:58.223Z,989.07
2018-05-29T07:26:58.468Z,989.10
2018-05-29T07:27:58.699Z,989.11
2018-05-29T07:28:58.942Z,989.11
2018-05-29T07:29:59.192Z,989.10
2018-05-29T07:30:59.416Z,989.11
2018-05-29T07:31:59.647Z,989.09
2018-05-29T07:32:59.885Z,989.06
2018-05-29T07:34:00.122Z,989.07
2018-05-29T07:35:00.361Z,989.07
2018-05-29T07:36:00.602Z,989.08
2018-05-29T07:37:00.839Z,989.10
2018-05-29T07:38:01.082Z,989.10
2018-05-29T07:39:01.315Z,989.06
2018-05-29T07:40:01.556Z,989.05
2018-05-29T07:41:01.791Z,989.04
2018-05-29T07:42:02.029Z,989.04
2018-05-29T07:43:02.276Z,989.01
2018-05-29T07:44:02.498Z,989.00
2018-05-29T07:45:02.746Z,988.98
2018-05-29T07:46:02.986Z,989.01
2018-05-29T07:47:03.225Z,989.00
2018-05-29T07:48:03.464Z,989.02
2018-05-29T07:49:03.703Z,989.02
2018-05-29T07:50:03.942Z,989.02
2018-05-29T07:51:04.176Z,989.01
2018-05-29T07:52:04.466Z,989.04
2018-05-29T07:53:04.656Z,988.98
2018-05-29T07:54:04.896Z,989.01
2018-05-29T07:55:05.133Z,988.94
2018-05-29T07:56:05.371Z,988.92
2018-05-29T07:57:05.612Z,988.96
2018-05-29T07:58:05.851Z,988.91
2018-05-29T07:59:06.091Z,988.95
2018-05-29T08:00:06.351Z,988.92
2018-05-29T08:01:06.577Z,988.92
2018-05-29T08:02:06.825Z,988.93
2018-05-29T08:03:07.061Z,988.94
2018-05-29T08:04:07.298Z,988.93
2018-05-29T08:05:07.537Z,988.90
2018-05-29T08:06:07.777Z,988.93
2018-05-29T08:07:08.015Z,988.90
2018-05-29T08:08:08.254Z,988.93
2018-05-29T08:09:08.491Z,988.90
2018-05-29T08:10:08.730Z,988.90
2018-05-29T08:11:08.968Z,988.91
2018-05-29T08:12:09.204Z,988.87
2018-05-29T08:13:09.442Z,988.87
2018-05-29T08:14:09.681Z,988.88
2018-05-29T08:15:09.919Z,988.84
2018-05-29T08:16:10.161Z,988.83
2018-05-29T08:17:10.399Z,988.81
2018-05-29T08:18:10.649Z,988.84
2018-05-29T08:19:10.872Z,988.86
2018-05-29T08:20:11.108Z,988.85
2018-05-29T08:21:11.344Z,988.78
2018-05-29T08:22:11.582Z,988.80
2018-05-29T08:23:11.821Z,988.82
2018-05-29T08:24:12.056Z,988.81
2018-05-29T08:25:12.299Z,988.81
2018-05-29T08:26:12.536Z,988.77
2018-05-29T08:27:12.777Z,988.77
2018-05-29T08:28:13.013Z,988.76
2018-05-29T08:29:13.254Z,988.78
2018-05-29T08:30:13.490Z,988.71
2018-05-29T08:31:13.729Z,988.68
2018-05-29T08:32:13.997Z,988.66
2018-05-29T08:33:14.208Z,988.72
2018-05-29T08:34:14.455Z,988.70
2018-05-29T08:35:14.687Z,988.70
2018-05-29T08:36:14.928Z,988.67
2018-05-29T08:37:15.165Z,988.65
2018-05-29T08:38:15.401Z,988.63
2018-05-29T08:39:15.640Z,988.62
2018-05-29T08:40:15.880Z,988.64
2018-05-29T08:41:16.117Z,988.67
2018-05-29T08:42:16.359Z,988.63
2018-05-29T08:43:16.601Z,988.61
2018-05-29T08:44:16.838Z,988.61
2018-05-29T08:45:17.084Z,988.63
2018-05-29T08:46:17.336Z,988.60
2018-05-29T08:47:17.557Z,988.66
2018-05-29T08:48:17.796Z,988.60
2018-05-29T08:49:18.037Z,988.63
2018-05-29T08:50:18.275Z,988.62
2018-05-29T08:51:18.516Z,988.55
2018-05-29T08:52:18.756Z,988.54
2018-05-29T08:53:18.993Z,988.52
2018-05-29T08:54:19.233Z,988.56
2018-05-29T08:55:19.470Z,988.53
2018-05-29T08:56:19.710Z,988.59
2018-05-29T08:57:19.987Z,988.58
2018-05-29T08:58:20.190Z,988.57
2018-05-29T08:59:20.433Z,988.56
2018-05-29T09:00:20.671Z,988.54
2018-05-29T09:01:20.907Z,988.53
2018-05-29T09:02:21.147Z,988.54
2018-05-29T09:03:21.392Z,988.56
2018-05-29T09:04:21.648Z,988.53
2018-05-29T09:05:21.867Z,988.57
2018-05-29T09:06:22.111Z,988.55
2018-05-29T09:07:22.375Z,988.58
2018-05-29T09:08:22.594Z,988.54
2018-05-29T09:09:22.822Z,988.54
2018-05-29T09:10:23.058Z,988.53
2018-05-29T09:11:23.294Z,988.50
2018-05-29T09:12:23.534Z,988.42
2018-05-29T09:13:23.773Z,988.48
2018-05-29T09:14:24.012Z,988.43
2018-05-29T09:15:24.251Z,988.43
2018-05-29T09:16:24.491Z,988.44
2018-05-29T09:17:24.732Z,988.45
2018-05-29T09:18:24.970Z,988.46
2018-05-29T09:19:25.210Z,988.43
2018-05-29T09:20:25.453Z,988.40
2018-05-29T09:21:25.693Z,988.45
2018-05-29T09:22:25.930Z,988.44
2018-05-29T09:23:26.170Z,988.46
2018-05-29T09:24:26.406Z,988.43
2018-05-29T09:25:26.647Z,988.44
2018-05-29T09:26:26.887Z,988.46
2018-05-29T09:27:27.123Z,988.43
2018-05-29T09:28:27.359Z,988.46
2018-05-29T09:29:27.602Z,988.46
2018-05-29T09:30:27.864Z,988.44
2018-05-29T09:31:28.098Z,988.43
2018-05-29T09:32:28.336Z,988.41
2018-05-29T09:33:28.574Z,988.42
2018-05-29T09:34:28.812Z,988.41
2018-05-29T09:35:29.056Z,988.39
2018-05-29T09:36:29.294Z,988.36
2018-05-29T09:37:29.605Z,988.33
2018-05-29T09:38:29.775Z,988.33
2018-05-29T09:39:30.015Z,988.34
2018-05-29T09:40:30.254Z,988.28
2018-05-29T09:41:30.497Z,988.28
2018-05-29T09:42:30.729Z,988.30
2018-05-29T09:43:30.973Z,988.28
2018-05-29T09:44:31.209Z,988.25
2018-05-29T09:45:31.450Z,988.27
2018-05-29T09:46:31.690Z,988.31
2018-05-29T09:47:31.931Z,988.28
2018-05-29T09:48:32.171Z,988.24
2018-05-29T09:49:32.411Z,988.27
2018-05-29T09:50:32.651Z,988.23
2018-05-29T09:51:32.894Z,988.21
2018-05-29T09:52:33.133Z,988.21
2018-05-29T09:53:33.372Z,988.23
2018-05-29T09:54:33.672Z,988.25
2018-05-29T09:55:33.851Z,988.25
2018-05-29T09:56:34.087Z,988.23
2018-05-29T09:57:34.329Z,988.24
2018-05-29T09:58:34.567Z,988.23
2018-05-29T09:59:34.808Z,988.22
2018-05-29T10:00:35.049Z,988.23
2018-05-29T10:01:35.291Z,988.18
2018-05-29T10:02:35.534Z,988.19
2018-05-29T10:03:35.767Z,988.16
2018-05-29T10:04:36.006Z,988.18
2018-05-29T10:05:36.247Z,988.13
2018-05-29T10:06:36.484Z,988.13
2018-05-29T10:07:36.724Z,988.09
2018-05-29T10:08:36.961Z,988.11
2018-05-29T10:09:37.201Z,988.06
2018-05-29T10:10:37.447Z,988.09
2018-05-29T10:11:37.681Z,988.08
2018-05-29T10:12:37.921Z,988.08
2018-05-29T10:13:38.162Z,988.06
2018-05-29T10:14:38.407Z,988.04
2018-05-29T10:15:38.639Z,988.00
2018-05-29T10:16:38.878Z,988.00
2018-05-29T10:17:39.118Z,987.98
2018-05-29T10:18:39.360Z,987.96
2018-05-29T10:19:39.596Z,987.96
2018-05-29T10:20:39.837Z,987.93
2018-05-29T10:21:40.083Z,987.93
2018-05-29T10:22:40.317Z,987.94
2018-05-29T10:23:40.552Z,987.92
2018-05-29T10:24:40.841Z,987.94
2018-05-29T10:25:41.035Z,987.96
2018-05-29T10:26:41.272Z,987.95
2018-05-29T10:27:41.510Z,987.90
2018-05-29T10:28:41.749Z,987.91
2018-05-29T10:29:41.989Z,987.90
2018-05-29T10:30:42.229Z,987.95
2018-05-29T10:31:42.468Z,987.96
2018-05-29T10:32:42.707Z,987.93
2018-05-29T10:33:42.948Z,987.92
2018-05-29T10:34:43.186Z,987.92
2018-05-29T10:35:43.424Z,987.90
2018-05-29T10:36:43.663Z,987.90
2018-05-29T10:37:43.901Z,987.89
2018-05-29T10:38:44.140Z,987.93
2018-05-29T10:39:44.380Z,987.88
2018-05-29T10:40:44.620Z,987.87
2018-05-29T10:41:44.858Z,987.86
2018-05-29T10:42:45.099Z,987.84
2018-05-29T10:43:45.336Z,987.93
2018-05-29T10:44:45.575Z,987.89
2018-05-29T10:45:45.816Z,987.90
2018-05-29T10:46:46.055Z,987.93
2018-05-29T10:47:46.295Z,987.91
2018-05-29T10:48:46.534Z,987.91
2018-05-29T10:49:46.774Z,987.89
2018-05-29T10:50:47.012Z,987.88
2018-05-29T10:51:47.253Z,987.85
2018-05-29T10:52:47.494Z,987.87
2018-05-29T10:53:47.734Z,987.86
2018-05-29T10:54:48.005Z,987.86
2018-05-29T10:55:48.210Z,987.83
2018-05-29T10:56:48.450Z,987.86
2018-05-29T10:57:48.699Z,987.84
2018-05-29T10:58:48.930Z,987.80
2018-05-29T10:59:49.173Z,987.79
2018-05-29T11:00:49.413Z,987.81
2018-05-29T11:01:49.650Z,987.80
2018-05-29T11:02:49.891Z,987.79
2018-05-29T11:03:50.132Z,987.79
2018-05-29T11:04:50.368Z,987.74
2018-05-29T11:05:50.609Z,987.76
2018-05-29T11:06:50.891Z,987.77
2018-05-29T11:07:51.106Z,987.79
2018-05-29T11:08:51.348Z,987.74
2018-05-29T11:09:51.581Z,987.75
2018-05-29T11:10:51.819Z,987.75
2018-05-29T11:11:52.065Z,987.76
2018-05-29T11:12:52.304Z,987.73
2018-05-29T11:13:52.542Z,987.74
2018-05-29T11:14:52.780Z,987.73
2018-05-29T11:15:53.020Z,987.76
2018-05-29T11:16:53.250Z,987.74
2018-05-29T11:17:53.501Z,987.75
2018-05-29T11:18:53.742Z,987.78
2018-05-29T11:19:53.980Z,987.75
2018-05-29T11:20:54.221Z,987.72
2018-05-29T11:21:54.463Z,987.73
2018-05-29T11:22:54.704Z,987.73
2018-05-29T11:23:54.943Z,987.67
2018-05-29T11:24:55.181Z,987.73
2018-05-29T11:25:55.434Z,987.70
2018-05-29T11:26:55.669Z,987.70
2018-05-29T11:27:55.912Z,987.72
2018-05-29T11:28:56.151Z,987.70
2018-05-29T11:29:56.392Z,987.67
2018-05-29T11:30:56.634Z,987.65
2018-05-29T11:31:56.875Z,987.65
2018-05-29T11:32:57.115Z,987.60
2018-05-29T11:33:57.358Z,987.61
2018-05-29T11:34:57.603Z,987.61
2018-05-29T11:35:57.837Z,987.55
2018-05-29T11:36:58.078Z,987.54
2018-05-29T11:37:58.317Z,987.54
2018-05-29T11:38:58.556Z,987.57
2018-05-29T11:39:58.795Z,987.52
2018-05-29T11:40:59.037Z,987.47
2018-05-29T11:41:59.277Z,987.50
2018-05-29T11:42:59.515Z,987.52
2018-05-29T11:43:59.759Z,987.47
2018-05-29T11:45:00.001Z,987.44
2018-05-29T11:46:00.246Z,987.46
2018-05-29T11:47:00.483Z,987.37
2018-05-29T11:48:00.721Z,987.38
2018-05-29T11:49:00.962Z,987.30
2018-05-29T11:50:01.203Z,987.32
2018-05-29T11:51:01.445Z,987.28
2018-05-29T11:52:01.698Z,987.29
2018-05-29T11:53:01.944Z,987.26
2018-05-29T11:54:02.186Z,987.24
2018-05-29T11:55:02.428Z,987.21
2018-05-29T11:56:02.675Z,987.18
2018-05-29T11:57:02.925Z,987.20
2018-05-29T11:58:03.166Z,987.20
2018-05-29T11:59:03.405Z,987.21
2018-05-29T12:00:03.659Z,987.20
2018-05-29T12:01:03.903Z,987.20
2018-05-29T12:02:04.168Z,987.21
2018-05-29T12:03:04.416Z,987.20
2018-05-29T12:04:04.661Z,987.21
2018-05-29T12:05:04.916Z,987.22
2018-05-29T12:06:05.163Z,987.25
2018-05-29T12:07:05.402Z,987.26
2018-05-29T12:08:05.643Z,987.30
2018-05-29T12:09:05.903Z,987.32
2018-05-29T12:10:06.143Z,987.29
2018-05-29T12:11:06.400Z,987.30
2018-05-29T12:12:06.639Z,987.34
2018-05-29T12:13:06.865Z,987.31
2018-05-29T12:14:07.102Z,987.32
2018-05-29T12:15:07.346Z,987.31
2018-05-29T12:16:07.586Z,987.32
2018-05-29T12:17:07.825Z,987.32
2018-05-29T12:18:08.072Z,987.28
2018-05-29T12:19:08.312Z,987.25
2018-05-29T12:20:08.551Z,987.25
2018-05-29T12:21:08.795Z,987.26
2018-05-29T12:22:09.049Z,987.26
2018-05-29T12:23:09.279Z,987.27
2018-05-29T12:24:09.533Z,987.20
2018-05-29T12:25:09.775Z,987.24
2018-05-29T12:26:10.026Z,987.26
2018-05-29T12:27:10.281Z,987.32
2018-05-29T12:28:10.520Z,987.32
2018-05-29T12:29:10.760Z,987.32
2018-05-29T12:30:11.002Z,987.32
2018-05-29T12:31:11.240Z,987.32